sensor_id;sensor_type;location;lat;lon;timestamp;pressure;altitude;pressure_sealevel;temperature;humidity
19447;BME280;9862;49.462;11.054;2022-07-06T00:01:11;98424.03;;;23.17;54.45
19447;BME280;9862;49.462;11.054;2022-07-06T00:03:37;98428.50;;;22.93;54.89
19447;BME280;9862;49.462;11.054;2022-07-06T00:06:05;98437.69;;;22.97;55.78
19447;BME280;9862;49.462;11.054;2022-07-06T00:08:32;98439.19;;;22.64;58.11
19447;BME280;9862;49.462;11.054;2022-07-06T00:10:58;98439.50;;;22.47;59.30
19447;BME280;9862;49.462;11.054;2022-07-06T00:13:25;98441.41;;;22.36;60.70
19447;BME280;9862;49.462;11.054;2022-07-06T00:15:52;98431.44;;;22.21;62.07
19447;BME280;9862;49.462;11.054;2022-07-06T00:18:18;98429.50;;;22.27;62.75
19447;BME280;9862;49.462;11.054;2022-07-06T00:20:45;98435.25;;;22.20;63.03
19447;BME280;9862;49.462;11.054;2022-07-06T00:23:13;98435.78;;;22.07;64.47
19447;BME280;9862;49.462;11.054;2022-07-06T00:25:39;98434.41;;;22.05;65.23
19447;BME280;9862;49.462;11.054;2022-07-06T00:28:06;98443.38;;;21.95;66.35
19447;BME280;9862;49.462;11.054;2022-07-06T00:30:33;98450.97;;;21.93;67.42
19447;BME280;9862;49.462;11.054;2022-07-06T00:32:59;98448.78;;;21.95;67.75
19447;BME280;9862;49.462;11.054;2022-07-06T00:35:26;98446.63;;;21.87;69.26
19447;BME280;9862;49.462;11.054;2022-07-06T00:37:53;98446.63;;;21.71;70.55
19447;BME280;9862;49.462;11.054;2022-07-06T00:40:21;98445.53;;;21.67;71.60
19447;BME280;9862;49.462;11.054;2022-07-06T00:42:48;98450.41;;;21.76;71.68
19447;BME280;9862;49.462;11.054;2022-07-06T00:45:16;98455.28;;;21.68;72.81
19447;BME280;9862;49.462;11.054;2022-07-06T00:47:43;98450.41;;;21.65;73.34
19447;BME280;9862;49.462;11.054;2022-07-06T00:50:14;98444.47;;;21.63;73.77
19447;BME280;9862;49.462;11.054;2022-07-06T00:52:44;98445.25;;;21.79;74.07
19447;BME280;9862;49.462;11.054;2022-07-06T00:55:12;98444.44;;;21.99;72.77
19447;BME280;9862;49.462;11.054;2022-07-06T00:57:41;98449.88;;;22.09;71.28
19447;BME280;9862;49.462;11.054;2022-07-06T01:00:10;98433.59;;;22.19;70.56
19447;BME280;9862;49.462;11.054;2022-07-06T01:02:38;98458.53;;;22.01;71.56
19447;BME280;9862;49.462;11.054;2022-07-06T01:05:06;98447.69;;;22.01;72.57
19447;BME280;9862;49.462;11.054;2022-07-06T01:07:33;98448.25;;;21.78;74.39
19447;BME280;9862;49.462;11.054;2022-07-06T01:10:02;98452.03;;;21.66;76.27
19447;BME280;9862;49.462;11.054;2022-07-06T01:12:29;98447.16;;;21.63;77.45
19447;BME280;9862;49.462;11.054;2022-07-06T01:14:57;98457.97;;;21.58;77.67
19447;BME280;9862;49.462;11.054;2022-07-06T01:17:24;98450.94;;;21.52;79.93
19447;BME280;9862;49.462;11.054;2022-07-06T01:19:51;98456.09;;;21.59;78.79
19447;BME280;9862;49.462;11.054;2022-07-06T01:22:19;98449.59;;;21.65;79.11
19447;BME280;9862;49.462;11.054;2022-07-06T01:24:46;98455.00;;;21.70;80.08
19447;BME280;9862;49.462;11.054;2022-07-06T01:27:12;98444.47;;;21.84;78.77
19447;BME280;9862;49.462;11.054;2022-07-06T01:29:39;98455.28;;;21.89;77.52
19447;BME280;9862;49.462;11.054;2022-07-06T01:32:06;98452.28;;;21.90;78.98
19447;BME280;9862;49.462;11.054;2022-07-06T01:34:34;98456.91;;;21.80;77.77
19447;BME280;9862;49.462;11.054;2022-07-06T01:37:01;98456.09;;;21.64;79.46
19447;BME280;9862;49.462;11.054;2022-07-06T01:39:29;98460.16;;;21.66;80.09
19447;BME280;9862;49.462;11.054;2022-07-06T01:41:55;98449.34;;;21.71;80.96
19447;BME280;9862;49.462;11.054;2022-07-06T01:44:22;98448.25;;;21.78;80.32
19447;BME280;9862;49.462;11.054;2022-07-06T01:46:48;98448.78;;;21.85;81.15
19447;BME280;9862;49.462;11.054;2022-07-06T01:49:15;98454.75;;;22.02;80.24
19447;BME280;9862;49.462;11.054;2022-07-06T01:51:41;98446.06;;;22.31;77.50
19447;BME280;9862;49.462;11.054;2022-07-06T01:54:08;98440.63;;;22.41;76.07
19447;BME280;9862;49.462;11.054;2022-07-06T01:56:36;98440.63;;;22.41;76.02
19447;BME280;9862;49.462;11.054;2022-07-06T01:59:02;98437.34;;;22.49;76.13
19447;BME280;9862;49.462;11.054;2022-07-06T02:01:29;98442.97;;;22.57;76.11
19447;BME280;9862;49.462;11.054;2022-07-06T02:03:55;98431.28;;;22.72;74.48
19447;BME280;9862;49.462;11.054;2022-07-06T02:06:22;98433.41;;;22.91;73.90
19447;BME280;9862;49.462;11.054;2022-07-06T02:08:49;98434.13;;;23.06;71.91
19447;BME280;9862;49.462;11.054;2022-07-06T02:11:17;98434.34;;;23.15;71.51
19447;BME280;9862;49.462;11.054;2022-07-06T02:13:45;98431.84;;;23.24;70.81
19447;BME280;9862;49.462;11.054;2022-07-06T02:16:11;98431.78;;;23.34;69.94
19447;BME280;9862;49.462;11.054;2022-07-06T02:18:39;98429.28;;;23.42;68.70
19447;BME280;9862;49.462;11.054;2022-07-06T02:21:05;98427.88;;;23.50;67.85
19447;BME280;9862;49.462;11.054;2022-07-06T02:23:32;98432.19;;;23.61;67.17
19447;BME280;9862;49.462;11.054;2022-07-06T02:25:59;98446.84;;;23.65;66.69
19447;BME280;9862;49.462;11.054;2022-07-06T02:28:25;98443.34;;;23.55;64.97
19447;BME280;9862;49.462;11.054;2022-07-06T02:30:53;98449.00;;;23.19;69.17
19447;BME280;9862;49.462;11.054;2022-07-06T02:33:20;98457.69;;;23.16;70.22
19447;BME280;9862;49.462;11.054;2022-07-06T02:35:46;98455.03;;;23.11;70.29
19447;BME280;9862;49.462;11.054;2022-07-06T02:38:13;98460.25;;;22.97;69.73
19447;BME280;9862;49.462;11.054;2022-07-06T02:40:40;98452.41;;;22.85;72.41
19447;BME280;9862;49.462;11.054;2022-07-06T02:43:07;98452.69;;;22.79;74.16
19447;BME280;9862;49.462;11.054;2022-07-06T02:45:33;98443.44;;;22.90;74.48
19447;BME280;9862;49.462;11.054;2022-07-06T02:48:01;98444.16;;;23.11;72.92
19447;BME280;9862;49.462;11.054;2022-07-06T02:50:28;98439.19;;;23.28;71.39
19447;BME280;9862;49.462;11.054;2022-07-06T02:52:54;98444.53;;;23.38;70.20
19447;BME280;9862;49.462;11.054;2022-07-06T02:55:21;98445.03;;;23.46;68.95
19447;BME280;9862;49.462;11.054;2022-07-06T02:57:48;98449.91;;;23.49;68.77
19447;BME280;9862;49.462;11.054;2022-07-06T03:00:15;98444.47;;;23.49;68.52
19447;BME280;9862;49.462;11.054;2022-07-06T03:02:42;98451.59;;;23.39;67.89
19447;BME280;9862;49.462;11.054;2022-07-06T03:05:10;98450.63;;;23.15;70.20
19447;BME280;9862;49.462;11.054;2022-07-06T03:07:37;98458.81;;;23.10;71.19
19447;BME280;9862;49.462;11.054;2022-07-06T03:10:04;98447.97;;;23.10;70.62
19447;BME280;9862;49.462;11.054;2022-07-06T03:12:31;98457.50;;;23.02;70.72
19447;BME280;9862;49.462;11.054;2022-07-06T03:14:58;98454.03;;;22.92;73.93
19447;BME280;9862;49.462;11.054;2022-07-06T03:17:24;98461.56;;;23.05;73.17
19447;BME280;9862;49.462;11.054;2022-07-06T03:19:51;98463.75;;;23.03;72.08
19447;BME280;9862;49.462;11.054;2022-07-06T03:22:19;98465.69;;;22.97;73.38
19447;BME280;9862;49.462;11.054;2022-07-06T03:24:46;98463.97;;;23.06;73.19
19447;BME280;9862;49.462;11.054;2022-07-06T03:27:12;98466.78;;;22.91;73.13
19447;BME280;9862;49.462;11.054;2022-07-06T03:29:40;98465.44;;;22.83;75.33
19447;BME280;9862;49.462;11.054;2022-07-06T03:32:07;98468.66;;;22.96;75.02
19447;BME280;9862;49.462;11.054;2022-07-06T03:34:34;98471.94;;;22.98;73.33
19447;BME280;9862;49.462;11.054;2022-07-06T03:37:00;98475.25;;;22.69;74.43
19447;BME280;9862;49.462;11.054;2022-07-06T03:39:28;98465.31;;;22.39;77.89
19447;BME280;9862;49.462;11.054;2022-07-06T03:41:55;98465.56;;;22.43;79.77
19447;BME280;9862;49.462;11.054;2022-07-06T03:44:22;98475.28;;;22.59;75.62
19447;BME280;9862;49.462;11.054;2022-07-06T03:46:49;98476.44;;;22.33;78.96
19447;BME280;9862;49.462;11.054;2022-07-06T03:49:16;98483.47;;;22.03;79.84
19447;BME280;9862;49.462;11.054;2022-07-06T03:51:42;98476.16;;;22.09;82.71
19447;BME280;9862;49.462;11.054;2022-07-06T03:54:09;98466.38;;;22.38;81.14
19447;BME280;9862;49.462;11.054;2022-07-06T03:56:37;98471.97;;;22.67;77.71
19447;BME280;9862;49.462;11.054;2022-07-06T03:59:04;98473.59;;;22.73;74.33
19447;BME280;9862;49.462;11.054;2022-07-06T04:01:31;98475.28;;;22.59;73.84
19447;BME280;9862;49.462;11.054;2022-07-06T04:03:57;98480.47;;;22.35;76.49
19447;BME280;9862;49.462;11.054;2022-07-06T04:06:24;98485.66;;;22.21;78.15
19447;BME280;9862;49.462;11.054;2022-07-06T04:08:51;98490.28;;;22.11;78.11
19447;BME280;9862;49.462;11.054;2022-07-06T04:11:18;98497.81;;;21.68;80.86
19447;BME280;9862;49.462;11.054;2022-07-06T04:13:46;98491.25;;;21.33;83.64
19447;BME280;9862;49.462;11.054;2022-07-06T04:16:13;98494.69;;;21.13;86.11
19447;BME280;9862;49.462;11.054;2022-07-06T04:18:39;98487.91;;;21.11;86.14
19447;BME280;9862;49.462;11.054;2022-07-06T04:21:06;98498.88;;;20.84;88.08
19447;BME280;9862;49.462;11.054;2022-07-06T04:23:32;98502.09;;;20.76;89.58
19447;BME280;9862;49.462;11.054;2022-07-06T04:25:59;98505.59;;;20.71;89.81
19447;BME280;9862;49.462;11.054;2022-07-06T04:28:26;98506.66;;;20.70;90.71
19447;BME280;9862;49.462;11.054;2022-07-06T04:30:53;98507.56;;;20.86;88.54
19447;BME280;9862;49.462;11.054;2022-07-06T04:33:20;98505.72;;;21.02;88.58
19447;BME280;9862;49.462;11.054;2022-07-06T04:35:47;98509.66;;;21.31;85.45
19447;BME280;9862;49.462;11.054;2022-07-06T04:38:14;98513.16;;;21.32;84.53
19447;BME280;9862;49.462;11.054;2022-07-06T04:40:40;98512.28;;;21.21;86.75
19447;BME280;9862;49.462;11.054;2022-07-06T04:43:07;98515.81;;;21.17;85.79
19447;BME280;9862;49.462;11.054;2022-07-06T04:45:34;98515.25;;;21.14;86.88
19447;BME280;9862;49.462;11.054;2022-07-06T04:48:02;98526.69;;;21.32;84.65
19447;BME280;9862;49.462;11.054;2022-07-06T04:50:29;98523.44;;;21.30;84.99
19447;BME280;9862;49.462;11.054;2022-07-06T04:52:55;98519.66;;;21.31;86.38
19447;BME280;9862;49.462;11.054;2022-07-06T04:55:22;98531.03;;;21.28;86.05
19447;BME280;9862;49.462;11.054;2022-07-06T04:57:49;98527.25;;;21.29;87.02
19447;BME280;9862;49.462;11.054;2022-07-06T05:00:17;98538.44;;;21.53;84.33
19447;BME280;9862;49.462;11.054;2022-07-06T05:02:44;98542.19;;;21.52;83.49
19447;BME280;9862;49.462;11.054;2022-07-06T05:05:12;98532.72;;;21.44;84.90
19447;BME280;9862;49.462;11.054;2022-07-06T05:07:38;98541.41;;;21.61;83.29
19447;BME280;9862;49.462;11.054;2022-07-06T05:10:07;98544.16;;;21.77;84.46
19447;BME280;9862;49.462;11.054;2022-07-06T05:12:34;98551.22;;;21.98;83.38
19447;BME280;9862;49.462;11.054;2022-07-06T05:15:01;98549.88;;;22.06;79.64
19447;BME280;9862;49.462;11.054;2022-07-06T05:17:27;98555.00;;;21.87;81.37
19447;BME280;9862;49.462;11.054;2022-07-06T05:19:54;98557.16;;;21.64;82.58
19447;BME280;9862;49.462;11.054;2022-07-06T05:22:22;98555.22;;;21.60;84.28
19447;BME280;9862;49.462;11.054;2022-07-06T05:24:49;98556.59;;;21.52;85.47
19447;BME280;9862;49.462;11.054;2022-07-06T05:27:16;98557.44;;;21.73;83.17
19447;BME280;9862;49.462;11.054;2022-07-06T05:29:42;98558.25;;;21.74;84.56
19447;BME280;9862;49.462;11.054;2022-07-06T05:32:09;98562.84;;;21.78;83.25
19447;BME280;9862;49.462;11.054;2022-07-06T05:34:35;98559.88;;;21.80;83.38
19447;BME280;9862;49.462;11.054;2022-07-06T05:37:03;98563.63;;;21.58;85.40
19447;BME280;9862;49.462;11.054;2022-07-06T05:39:31;98559.81;;;21.44;86.67
19447;BME280;9862;49.462;11.054;2022-07-06T05:41:58;98563.47;;;21.23;88.81
19447;BME280;9862;49.462;11.054;2022-07-06T05:44:25;98572.06;;;21.09;89.53
19447;BME280;9862;49.462;11.054;2022-07-06T05:46:52;98571.75;;;20.96;91.41
19447;BME280;9862;49.462;11.054;2022-07-06T05:49:39;98574.13;;;20.87;93.76
19447;BME280;9862;49.462;11.054;2022-07-06T05:52:23;98572.50;;;20.86;94.03
19447;BME280;9862;49.462;11.054;2022-07-06T05:54:51;98575.72;;;20.83;93.54
19447;BME280;9862;49.462;11.054;2022-07-06T05:57:18;98579.97;;;20.74;93.68
19447;BME280;9862;49.462;11.054;2022-07-06T05:59:44;98579.41;;;20.67;94.17
19447;BME280;9862;49.462;11.054;2022-07-06T06:02:11;98578.06;;;20.69;92.85
19447;BME280;9862;49.462;11.054;2022-07-06T06:04:38;98572.13;;;20.72;91.41
19447;BME280;9862;49.462;11.054;2022-07-06T06:07:04;98571.91;;;20.79;91.66
19447;BME280;9862;49.462;11.054;2022-07-06T06:09:31;98572.47;;;20.81;91.83
19447;BME280;9862;49.462;11.054;2022-07-06T06:11:59;98571.31;;;20.72;93.00
19447;BME280;9862;49.462;11.054;2022-07-06T06:14:25;98575.69;;;20.78;96.43
19447;BME280;9862;49.462;11.054;2022-07-06T06:16:52;98568.50;;;20.99;92.05
19447;BME280;9862;49.462;11.054;2022-07-06T06:19:21;98566.69;;;21.14;92.70
19447;BME280;9862;49.462;11.054;2022-07-06T06:21:47;98568.88;;;21.18;90.38
19447;BME280;9862;49.462;11.054;2022-07-06T06:24:14;98565.06;;;21.19;88.14
19447;BME280;9862;49.462;11.054;2022-07-06T06:26:41;98576.97;;;21.18;89.52
19447;BME280;9862;49.462;11.054;2022-07-06T06:29:09;98575.28;;;21.01;88.77
19447;BME280;9862;49.462;11.054;2022-07-06T06:31:36;98570.88;;;20.85;91.00
19447;BME280;9862;49.462;11.054;2022-07-06T06:34:03;98580.13;;;20.94;92.18
19447;BME280;9862;49.462;11.054;2022-07-06T06:36:29;98574.72;;;20.94;92.81
19447;BME280;9862;49.462;11.054;2022-07-06T06:38:56;98574.72;;;20.94;93.98
19447;BME280;9862;49.462;11.054;2022-07-06T06:41:22;98576.41;;;21.10;92.88
19447;BME280;9862;49.462;11.054;2022-07-06T06:43:49;98580.69;;;21.01;90.96
19447;BME280;9862;49.462;11.054;2022-07-06T06:46:17;98572.59;;;21.06;89.59
19447;BME280;9862;49.462;11.054;2022-07-06T06:48:43;98572.06;;;21.09;88.80
19447;BME280;9862;49.462;11.054;2022-07-06T06:51:10;98574.78;;;21.04;89.42
19447;BME280;9862;49.462;11.054;2022-07-06T06:53:37;98574.50;;;21.11;87.58
19447;BME280;9862;49.462;11.054;2022-07-06T06:56:03;98576.34;;;21.00;87.19
19447;BME280;9862;49.462;11.054;2022-07-06T06:58:30;98569.91;;;21.06;87.33
19447;BME280;9862;49.462;11.054;2022-07-06T07:00:56;98581.75;;;20.95;88.87
19447;BME280;9862;49.462;11.054;2022-07-06T07:03:24;98579.06;;;20.95;88.92
19447;BME280;9862;49.462;11.054;2022-07-06T07:05:51;98578.53;;;21.03;88.87
19447;BME280;9862;49.462;11.054;2022-07-06T07:08:18;98574.28;;;21.18;87.50
19447;BME280;9862;49.462;11.054;2022-07-06T07:10:45;98574.25;;;21.12;88.47
19447;BME280;9862;49.462;11.054;2022-07-06T07:13:11;98585.06;;;21.12;87.19
19447;BME280;9862;49.462;11.054;2022-07-06T07:15:38;98583.44;;;21.06;86.34
19447;BME280;9862;49.462;11.054;2022-07-06T07:18:05;98574.19;;;20.97;85.92
19447;BME280;9862;49.462;11.054;2022-07-06T07:20:33;98581.53;;;21.07;86.43
19447;BME280;9862;49.462;11.054;2022-07-06T07:22:59;98586.28;;;21.32;82.65
19447;BME280;9862;49.462;11.054;2022-07-06T07:25:27;98570.84;;;21.32;80.72
19447;BME280;9862;49.462;11.054;2022-07-06T07:27:54;98582.03;;;21.56;77.22
19447;BME280;9862;49.462;11.054;2022-07-06T07:30:20;98577.44;;;21.57;79.79
19447;BME280;9862;49.462;11.054;2022-07-06T07:32:47;98574.50;;;21.74;80.27
19447;BME280;9862;49.462;11.054;2022-07-06T07:35:14;98572.84;;;21.67;80.86
19447;BME280;9862;49.462;11.054;2022-07-06T07:37:42;98578.03;;;21.79;81.53
19447;BME280;9862;49.462;11.054;2022-07-06T07:40:09;98580.97;;;21.67;77.97
19447;BME280;9862;49.462;11.054;2022-07-06T07:42:36;98573.38;;;21.54;74.59
19447;BME280;9862;49.462;11.054;2022-07-06T07:45:06;98579.00;;;21.37;76.86
19447;BME280;9862;49.462;11.054;2022-07-06T07:47:33;98584.72;;;21.46;76.77
19447;BME280;9862;49.462;11.054;2022-07-06T07:49:59;98577.69;;;21.60;71.87
19447;BME280;9862;49.462;11.054;2022-07-06T07:52:26;98579.88;;;21.58;70.86
19447;BME280;9862;49.462;11.054;2022-07-06T07:54:54;98567.97;;;21.69;72.79
19447;BME280;9862;49.462;11.054;2022-07-06T07:57:21;98572.91;;;21.93;72.03
19447;BME280;9862;49.462;11.054;2022-07-06T07:59:48;98574.00;;;21.92;70.24
19447;BME280;9862;49.462;11.054;2022-07-06T08:02:14;98565.31;;;21.90;72.04
19447;BME280;9862;49.462;11.054;2022-07-06T08:04:41;98567.28;;;22.20;70.50
19447;BME280;9862;49.462;11.054;2022-07-06T08:07:08;98566.44;;;22.19;64.21
19447;BME280;9862;49.462;11.054;2022-07-06T08:09:34;98563.75;;;22.14;63.10
19447;BME280;9862;49.462;11.054;2022-07-06T08:12:03;98574.06;;;22.22;62.70
19447;BME280;9862;49.462;11.054;2022-07-06T08:14:30;98573.47;;;22.05;62.60
19447;BME280;9862;49.462;11.054;2022-07-06T08:16:56;98574.56;;;22.09;62.64
19447;BME280;9862;49.462;11.054;2022-07-06T08:19:23;98575.66;;;22.08;61.55
19447;BME280;9862;49.462;11.054;2022-07-06T08:21:50;98574.56;;;22.19;58.79
19447;BME280;9862;49.462;11.054;2022-07-06T08:24:16;98568.63;;;22.12;59.96
19447;BME280;9862;49.462;11.054;2022-07-06T08:26:43;98571.06;;;22.29;60.45
19447;BME280;9862;49.462;11.054;2022-07-06T08:29:11;98566.72;;;22.38;59.64
19447;BME280;9862;49.462;11.054;2022-07-06T08:31:37;98572.94;;;22.39;60.04
19447;BME280;9862;49.462;11.054;2022-07-06T08:34:04;98575.41;;;22.35;60.26
19447;BME280;9862;49.462;11.054;2022-07-06T08:36:31;98576.22;;;22.31;60.96
19447;BME280;9862;49.462;11.054;2022-07-06T08:38:58;98577.31;;;22.35;62.05
19447;BME280;9862;49.462;11.054;2022-07-06T08:41:28;98571.88;;;22.45;61.77
19447;BME280;9862;49.462;11.054;2022-07-06T08:43:55;98579.69;;;22.87;58.14
19447;BME280;9862;49.462;11.054;2022-07-06T08:46:23;98578.41;;;22.49;58.90
19447;BME280;9862;49.462;11.054;2022-07-06T08:48:50;98572.44;;;22.42;60.33
19447;BME280;9862;49.462;11.054;2022-07-06T08:51:17;98574.88;;;22.43;60.44
19447;BME280;9862;49.462;11.054;2022-07-06T08:53:44;98563.72;;;22.60;61.40
19447;BME280;9862;49.462;11.054;2022-07-06T08:56:14;98571.56;;;22.77;60.24
19447;BME280;9862;49.462;11.054;2022-07-06T08:58:41;98563.13;;;22.83;60.04
19447;BME280;9862;49.462;11.054;2022-07-06T09:01:09;98578.63;;;22.78;60.36
19447;BME280;9862;49.462;11.054;2022-07-06T09:03:39;98573.47;;;22.71;60.32
19447;BME280;9862;49.462;11.054;2022-07-06T09:06:06;98571.03;;;22.65;60.12
19447;BME280;9862;49.462;11.054;2022-07-06T09:08:33;98565.59;;;22.65;60.30
19447;BME280;9862;49.462;11.054;2022-07-06T09:11:02;98561.78;;;22.91;58.72
19447;BME280;9862;49.462;11.054;2022-07-06T09:13:28;98569.38;;;22.99;58.57
19447;BME280;9862;49.462;11.054;2022-07-06T09:15:55;98556.09;;;22.93;59.29
19447;BME280;9862;49.462;11.054;2022-07-06T09:18:22;98563.94;;;22.94;58.82
19447;BME280;9862;49.462;11.054;2022-07-06T09:20:50;98558.00;;;22.97;59.54
19447;BME280;9862;49.462;11.054;2022-07-06T09:23:17;98554.09;;;23.13;59.34
19447;BME280;9862;49.462;11.054;2022-07-06T09:25:47;98554.91;;;23.19;57.31
19447;BME280;9862;49.462;11.054;2022-07-06T09:28:14;98547.28;;;23.21;58.49
19447;BME280;9862;49.462;11.054;2022-07-06T09:30:40;98556.78;;;23.24;59.70
19447;BME280;9862;49.462;11.054;2022-07-06T09:33:07;98553.81;;;23.20;61.08
19447;BME280;9862;49.462;11.054;2022-07-06T09:35:36;98556.16;;;23.47;59.79
19447;BME280;9862;49.462;11.054;2022-07-06T09:38:06;98551.81;;;23.41;57.59
19447;BME280;9862;49.462;11.054;2022-07-06T09:40:34;98561.88;;;23.35;56.63
19447;BME280;9862;49.462;11.054;2022-07-06T09:43:09;98554.97;;;23.09;56.57
19447;BME280;9862;49.462;11.054;2022-07-06T09:45:36;98571.78;;;23.06;55.98
19447;BME280;9862;49.462;11.054;2022-07-06T09:48:07;98572.03;;;23.20;55.96
19447;BME280;9862;49.462;11.054;2022-07-06T09:50:44;98566.84;;;23.23;55.36
19447;BME280;9862;49.462;11.054;2022-07-06T09:53:14;98569.50;;;23.38;55.26
19447;BME280;9862;49.462;11.054;2022-07-06T09:55:45;98571.41;;;23.38;53.68
19447;BME280;9862;49.462;11.054;2022-07-06T09:58:12;98570.03;;;23.46;52.73
19447;BME280;9862;49.462;11.054;2022-07-06T10:00:40;98562.41;;;23.48;53.57
19447;BME280;9862;49.462;11.054;2022-07-06T10:03:07;98562.50;;;23.82;53.65
19447;BME280;9862;49.462;11.054;2022-07-06T10:05:36;98566.13;;;23.67;53.29
19447;BME280;9862;49.462;11.054;2022-07-06T10:08:03;98573.81;;;23.45;53.08
19447;BME280;9862;49.462;11.054;2022-07-06T10:10:32;98568.47;;;23.29;53.36
19447;BME280;9862;49.462;11.054;2022-07-06T10:12:59;98568.41;;;23.34;53.30
19447;BME280;9862;49.462;11.054;2022-07-06T10:15:28;98565.78;;;23.19;53.86
19447;BME280;9862;49.462;11.054;2022-07-06T10:17:58;98572.88;;;23.10;54.63
19447;BME280;9862;49.462;11.054;2022-07-06T10:20:27;98567.72;;;23.03;55.91
19447;BME280;9862;49.462;11.054;2022-07-06T10:22:54;98570.09;;;23.25;55.36
19447;BME280;9862;49.462;11.054;2022-07-06T10:25:21;98562.91;;;23.60;54.21
19447;BME280;9862;49.462;11.054;2022-07-06T10:27:51;98562.81;;;23.75;51.56
19447;BME280;9862;49.462;11.054;2022-07-06T10:30:19;98558.50;;;23.64;52.42
19447;BME280;9862;49.462;11.054;2022-07-06T10:32:49;98564.81;;;23.59;52.84
19447;BME280;9862;49.462;11.054;2022-07-06T10:35:18;98567.19;;;23.71;52.53
19447;BME280;9862;49.462;11.054;2022-07-06T10:37:46;98566.66;;;23.64;52.73
19447;BME280;9862;49.462;11.054;2022-07-06T10:40:31;98566.09;;;23.72;53.57
19447;BME280;9862;49.462;11.054;2022-07-06T10:43:17;98569.94;;;23.66;53.80
19447;BME280;9862;49.462;11.054;2022-07-06T10:45:50;98559.25;;;23.80;51.91
19447;BME280;9862;49.462;11.054;2022-07-06T10:48:19;98558.38;;;23.89;51.36
19447;BME280;9862;49.462;11.054;2022-07-06T10:50:48;98560.88;;;23.81;51.71
19447;BME280;9862;49.462;11.054;2022-07-06T10:53:16;98559.56;;;23.73;52.65
19447;BME280;9862;49.462;11.054;2022-07-06T10:55:44;98562.84;;;24.09;49.59
19447;BME280;9862;49.462;11.054;2022-07-06T10:58:13;98570.72;;;24.11;49.54
19447;BME280;9862;49.462;11.054;2022-07-06T11:00:52;98563.66;;;24.10;49.55
19447;BME280;9862;49.462;11.054;2022-07-06T11:03:36;98557.03;;;24.21;49.39
19447;BME280;9862;49.462;11.054;2022-07-06T11:06:05;98554.16;;;24.07;50.23
19447;BME280;9862;49.462;11.054;2022-07-06T11:08:51;98563.13;;;24.13;51.20
19447;BME280;9862;49.462;11.054;2022-07-06T11:11:20;98564.44;;;23.76;52.04
19447;BME280;9862;49.462;11.054;2022-07-06T11:13:49;98556.25;;;23.81;53.31
19447;BME280;9862;49.462;11.054;2022-07-06T11:16:18;98561.13;;;23.84;51.95
19447;BME280;9862;49.462;11.054;2022-07-06T11:18:49;98545.06;;;24.22;51.28
19447;BME280;9862;49.462;11.054;2022-07-06T11:21:21;98553.78;;;24.19;50.26
19447;BME280;9862;49.462;11.054;2022-07-06T11:23:49;98555.88;;;23.98;51.94
19447;BME280;9862;49.462;11.054;2022-07-06T11:26:17;98561.81;;;23.61;52.57
19447;BME280;9862;49.462;11.054;2022-07-06T11:28:46;98554.19;;;23.53;52.53
19447;BME280;9862;49.462;11.054;2022-07-06T11:31:17;98552.56;;;23.62;52.37
19447;BME280;9862;49.462;11.054;2022-07-06T11:33:47;98548.50;;;23.59;51.78
19447;BME280;9862;49.462;11.054;2022-07-06T11:36:16;98554.19;;;23.53;51.40
19447;BME280;9862;49.462;11.054;2022-07-06T11:38:44;98546.06;;;23.53;51.71
19447;BME280;9862;49.462;11.054;2022-07-06T11:41:11;98542.47;;;23.67;48.61
19447;BME280;9862;49.462;11.054;2022-07-06T11:43:40;98551.25;;;23.98;47.89
19447;BME280;9862;49.462;11.054;2022-07-06T11:46:21;98548.31;;;24.24;45.87
19447;BME280;9862;49.462;11.054;2022-07-06T11:48:48;98557.31;;;24.19;45.90
19447;BME280;9862;49.462;11.054;2022-07-06T11:51:15;98541.06;;;24.14;45.07
19447;BME280;9862;49.462;11.054;2022-07-06T11:53:43;98540.44;;;23.88;45.61
19447;BME280;9862;49.462;11.054;2022-07-06T11:56:10;98554.34;;;23.82;45.97
19447;BME280;9862;49.462;11.054;2022-07-06T11:58:39;98550.19;;;23.94;46.08
19447;BME280;9862;49.462;11.054;2022-07-06T12:01:09;98543.44;;;24.21;45.82
19447;BME280;9862;49.462;11.054;2022-07-06T12:03:37;98541.66;;;24.40;43.96
19447;BME280;9862;49.462;11.054;2022-07-06T12:06:05;98544.94;;;24.42;44.55
19447;BME280;9862;49.462;11.054;2022-07-06T12:08:41;98538.00;;;24.55;43.71
19447;BME280;9862;49.462;11.054;2022-07-06T12:11:08;98548.28;;;24.34;44.00
19447;BME280;9862;49.462;11.054;2022-07-06T12:13:36;98532.59;;;24.50;43.94
19447;BME280;9862;49.462;11.054;2022-07-06T12:16:09;98542.66;;;24.78;44.20
19447;BME280;9862;49.462;11.054;2022-07-06T12:18:38;98531.53;;;24.75;44.65
19447;BME280;9862;49.462;11.054;2022-07-06T12:21:10;98530.41;;;24.81;44.55
19447;BME280;9862;49.462;11.054;2022-07-06T12:23:43;98542.72;;;24.73;45.42
19447;BME280;9862;49.462;11.054;2022-07-06T12:26:10;98532.38;;;24.46;45.13
19447;BME280;9862;49.462;11.054;2022-07-06T12:28:37;98531.44;;;24.27;45.57
19447;BME280;9862;49.462;11.054;2022-07-06T12:31:03;98519.69;;;24.37;45.31
19447;BME280;9862;49.462;11.054;2022-07-06T12:33:31;98520.44;;;24.42;44.48
19447;BME280;9862;49.462;11.054;2022-07-06T12:36:10;98512.19;;;24.52;44.25
19447;BME280;9862;49.462;11.054;2022-07-06T12:38:43;98510.56;;;24.51;43.74
19447;BME280;9862;49.462;11.054;2022-07-06T12:41:11;98513.13;;;24.67;43.67
19447;BME280;9862;49.462;11.054;2022-07-06T12:43:39;98513.94;;;24.91;44.58
19447;BME280;9862;49.462;11.054;2022-07-06T12:46:28;98511.44;;;25.19;44.75
19447;BME280;9862;49.462;11.054;2022-07-06T12:48:57;98513.00;;;25.25;44.94
19447;BME280;9862;49.462;11.054;2022-07-06T12:51:25;98503.41;;;25.08;44.72
19447;BME280;9862;49.462;11.054;2022-07-06T12:53:52;98505.53;;;24.88;44.03
19447;BME280;9862;49.462;11.054;2022-07-06T12:56:19;98514.69;;;24.97;43.75
19447;BME280;9862;49.462;11.054;2022-07-06T12:58:56;98511.66;;;24.98;41.47
19447;BME280;9862;49.462;11.054;2022-07-06T13:01:23;98500.03;;;24.93;41.74
19447;BME280;9862;49.462;11.054;2022-07-06T13:03:54;98497.47;;;25.01;42.42